sensor_id;sensor_type;location;lat;lon;timestamp;pressure;altitude;pressure_sealevel;temperature;humidity
4528;BME280;62320;51.520;6.818;2022-12-07T00:01:49;101252.63;;;5.36;100.00
4528;BME280;62320;51.520;6.818;2022-12-07T00:11:51;101256.97;;;5.38;100.00
4528;BME280;62320;51.520;6.818;2022-12-07T00:21:53;101245.22;;;5.46;100.00
4528;BME280;62320;51.520;6.818;2022-12-07T00:31:54;101253.97;;;5.53;100.00
4528;BME280;62320;51.520;6.818;2022-12-07T00:41:56;101244.47;;;5.50;100.00
4528;BME280;62320;51.520;6.818;2022-12-07T00:51:57;101240.22;;;5.51;100.00
4528;BME280;62320;51.520;6.818;2022-12-07T01:01:58;101230.88;;;5.53;100.00
4528;BME280;62320;51.520;6.818;2022-12-07T01:12:00;101218.94;;;5.53;100.00
4528;BME280;62320;51.520;6.818;2022-12-07T01:22:01;101223.19;;;5.53;100.00
4528;BME280;62320;51.520;6.818;2022-12-07T01:32:02;101227.44;;;5.52;100.00
4528;BME280;62320;51.520;6.818;2022-12-07T01:42:04;101235.88;;;5.48;100.00
4528;BME280;62320;51.520;6.818;2022-12-07T01:52:27;101238.44;;;5.48;100.00
4528;BME280;62320;51.520;6.818;2022-12-07T02:02:33;101228.84;;;5.41;100.00
4528;BME280;62320;51.520;6.818;2022-12-07T02:12:35;101218.59;;;5.41;100.00
4528;BME280;62320;51.520;6.818;2022-12-07T02:23:00;101220.13;;;5.36;100.00
4528;BME280;62320;51.520;6.818;2022-12-07T02:33:11;101224.22;;;5.30;100.00
4528;BME280;62320;51.520;6.818;2022-12-07T02:43:25;101219.63;;;5.18;100.00
4528;BME280;62320;51.520;6.818;2022-12-07T02:53:39;101215.13;;;5.11;100.00
4528;BME280;62320;51.520;6.818;2022-12-07T03:03:47;101217.50;;;5.03;100.00
4528;BME280;62320;51.520;6.818;2022-12-07T03:13:59;101215.53;;;4.95;100.00
4528;BME280;62320;51.520;6.818;2022-12-07T03:24:05;101217.63;;;4.80;100.00
4528;BME280;62320;51.520;6.818;2022-12-07T03:34:24;101221.66;;;4.72;100.00
4528;BME280;62320;51.520;6.818;2022-12-07T03:44:28;101213.78;;;4.66;100.00
4528;BME280;62320;51.520;6.818;2022-12-07T03:54:37;101214.66;;;4.66;100.00
4528;BME280;62320;51.520;6.818;2022-12-07T04:04:42;101206.94;;;4.65;100.00
4528;BME280;62320;51.520;6.818;2022-12-07T04:14:44;101203.44;;;4.63;100.00
4528;BME280;62320;51.520;6.818;2022-12-07T04:24:45;101207.41;;;4.53;100.00
4528;BME280;62320;51.520;6.818;2022-12-07T04:34:47;101207.16;;;4.46;100.00
4528;BME280;62320;51.520;6.818;2022-12-07T04:44:55;101200.97;;;4.39;100.00
4528;BME280;62320;51.520;6.818;2022-12-07T04:54:56;101217.88;;;4.34;100.00
4528;BME280;62320;51.520;6.818;2022-12-07T05:04:58;101203.38;;;4.33;100.00
4528;BME280;62320;51.520;6.818;2022-12-07T05:14:59;101203.38;;;4.33;100.00
4528;BME280;62320;51.520;6.818;2022-12-07T05:25:00;101199.97;;;4.34;100.00
4528;BME280;62320;51.520;6.818;2022-12-07T05:35:02;101209.41;;;4.35;100.00
4528;BME280;62320;51.520;6.818;2022-12-07T05:45:04;101189.88;;;4.39;100.00
4528;BME280;62320;51.520;6.818;2022-12-07T05:55:06;101196.56;;;4.33;100.00
4528;BME280;62320;51.520;6.818;2022-12-07T06:05:08;101193.94;;;4.32;100.00
4528;BME280;62320;51.520;6.818;2022-12-07T06:15:09;101187.09;;;4.31;100.00
4528;BME280;62320;51.520;6.818;2022-12-07T06:25:11;101214.25;;;4.27;100.00
4528;BME280;62320;51.520;6.818;2022-12-07T06:35:12;101215.13;;;4.28;100.00
4528;BME280;62320;51.520;6.818;2022-12-07T06:45:14;101202.09;;;4.20;100.00
4528;BME280;62320;51.520;6.818;2022-12-07T06:55:15;101213.91;;;4.17;100.00
4528;BME280;62320;51.520;6.818;2022-12-07T07:05:17;101201.00;;;4.14;100.00
4528;BME280;62320;51.520;6.818;2022-12-07T07:15:18;101218.59;;;4.03;100.00
4528;BME280;62320;51.520;6.818;2022-12-07T07:25:19;101211.41;;;3.93;100.00
4528;BME280;62320;51.520;6.818;2022-12-07T07:35:21;101222.50;;;3.94;100.00
4528;BME280;62320;51.520;6.818;2022-12-07T07:45:24;101225.84;;;3.91;100.00
4528;BME280;62320;51.520;6.818;2022-12-07T07:55:25;101220.13;;;3.98;100.00
4528;BME280;62320;51.520;6.818;2022-12-07T08:05:26;101223.69;;;4.03;100.00
4528;BME280;62320;51.520;6.818;2022-12-07T08:15:30;101224.78;;;4.10;100.00
4528;BME280;62320;51.520;6.818;2022-12-07T08:25:32;101230.69;;;4.09;100.00
4528;BME280;62320;51.520;6.818;2022-12-07T08:35:34;101235.63;;;4.03;100.00
4528;BME280;62320;51.520;6.818;2022-12-07T08:45:35;101245.22;;;4.08;100.00
4528;BME280;62320;51.520;6.818;2022-12-07T08:55:37;101242.66;;;4.08;100.00
4528;BME280;62320;51.520;6.818;2022-12-07T09:05:38;101239.06;;;4.03;100.00
4528;BME280;62320;51.520;6.818;2022-12-07T09:15:40;101245.25;;;4.10;100.00
4528;BME280;62320;51.520;6.818;2022-12-07T09:25:41;101245.81;;;4.26;100.00
4528;BME280;62320;51.520;6.818;2022-12-07T09:35:49;101243.47;;;4.34;100.00
4528;BME280;62320;51.520;6.818;2022-12-07T09:45:53;101242.00;;;4.41;100.00
4528;BME280;62320;51.520;6.818;2022-12-07T09:55:56;101229.25;;;4.42;100.00
4528;BME280;62320;51.520;6.818;2022-12-07T10:05:57;101240.38;;;4.43;100.00
4528;BME280;62320;51.520;6.818;2022-12-07T10:15:59;101215.13;;;4.55;100.00
4528;BME280;62320;51.520;6.818;2022-12-07T10:36:36;101193.03;;;4.85;100.00
4528;BME280;62320;51.520;6.818;2022-12-07T10:47:13;101188.34;;;5.00;100.00
4528;BME280;62320;51.520;6.818;2022-12-07T11:08:09;101172.25;;;5.34;100.00
4528;BME280;62320;51.520;6.818;2022-12-07T11:39:07;101141.44;;;5.65;100.00
4528;BME280;62320;51.520;6.818;2022-12-07T11:59:29;101119.63;;;5.82;100.00
4528;BME280;62320;51.520;6.818;2022-12-07T12:09:43;101125.06;;;5.93;100.00
4528;BME280;62320;51.520;6.818;2022-12-07T12:20:17;101116.66;;;6.00;100.00
4528;BME280;62320;51.520;6.818;2022-12-07T12:30:47;101110.72;;;6.01;100.00
4528;BME280;62320;51.520;6.818;2022-12-07T12:41:04;101096.28;;;6.06;100.00
4528;BME280;62320;51.520;6.818;2022-12-07T12:51:38;101083.59;;;6.12;100.00
4528;BME280;62320;51.520;6.818;2022-12-07T13:01:42;101081.13;;;6.16;100.00
4528;BME280;62320;51.520;6.818;2022-12-07T13:11:44;101074.38;;;6.20;100.00
4528;BME280;62320;51.520;6.818;2022-12-07T13:21:47;101071.72;;;6.17;100.00
4528;BME280;62320;51.520;6.818;2022-12-07T13:31:50;101061.44;;;6.15;100.00
4528;BME280;62320;51.520;6.818;2022-12-07T13:41:57;101038.16;;;6.08;100.00
4528;BME280;62320;51.520;6.818;2022-12-07T14:02:21;101021.50;;;5.91;100.00
4528;BME280;62320;51.520;6.818;2022-12-07T14:12:24;101016.25;;;5.86;100.00
4528;BME280;62320;51.520;6.818;2022-12-07T14:22:37;101002.44;;;5.81;100.00
4528;BME280;62320;51.520;6.818;2022-12-07T14:32:39;100991.97;;;5.72;100.00
4528;BME280;62320;51.520;6.818;2022-12-07T14:42:43;100992.59;;;5.63;100.00
4528;BME280;62320;51.520;6.818;2022-12-07T14:52:56;100979.63;;;5.56;100.00
4528;BME280;62320;51.520;6.818;2022-12-07T15:03:19;100986.19;;;5.45;100.00
4528;BME280;62320;51.520;6.818;2022-12-07T15:13:21;100990.19;;;5.34;99.94
4528;BME280;62320;51.520;6.818;2022-12-07T15:23:42;100986.75;;;5.33;100.00
4528;BME280;62320;51.520;6.818;2022-12-07T15:33:43;100980.66;;;5.28;100.00
4528;BME280;62320;51.520;6.818;2022-12-07T15:43:45;100973.84;;;5.30;100.00
4528;BME280;62320;51.520;6.818;2022-12-07T15:54:05;100969.50;;;5.26;100.00
4528;BME280;62320;51.520;6.818;2022-12-07T16:04:07;100962.63;;;5.25;100.00
4528;BME280;62320;51.520;6.818;2022-12-07T16:14:08;100962.59;;;5.24;100.00
4528;BME280;62320;51.520;6.818;2022-12-07T16:24:10;100955.66;;;5.20;100.00
4528;BME280;62320;51.520;6.818;2022-12-07T16:34:11;100945.41;;;5.20;100.00
4528;BME280;62320;51.520;6.818;2022-12-07T16:44:13;100954.00;;;5.22;100.00
4528;BME280;62320;51.520;6.818;2022-12-07T16:54:14;100934.38;;;5.22;99.71
4528;BME280;62320;51.520;6.818;2022-12-07T17:04:16;100928.44;;;5.25;99.72
4528;BME280;62320;51.520;6.818;2022-12-07T17:14:17;100919.00;;;5.24;99.71
4528;BME280;62320;51.520;6.818;2022-12-07T17:24:38;100912.13;;;5.21;99.52
4528;BME280;62320;51.520;6.818;2022-12-07T17:34:39;100906.19;;;5.22;99.58
4528;BME280;62320;51.520;6.818;2022-12-07T17:44:41;100899.19;;;5.17;100.00
4528;BME280;62320;51.520;6.818;2022-12-07T17:54:42;100888.06;;;5.16;99.41
4528;BME280;62320;51.520;6.818;2022-12-07T18:04:44;100883.69;;;5.11;99.95
4528;BME280;62320;51.520;6.818;2022-12-07T18:14:47;100876.78;;;5.08;99.37
4528;BME280;62320;51.520;6.818;2022-12-07T18:24:50;100866.44;;;5.03;99.76
4528;BME280;62320;51.520;6.818;2022-12-07T18:34:52;100863.81;;;5.02;99.43
4528;BME280;62320;51.520;6.818;2022-12-07T18:44:54;100865.56;;;5.04;99.32
4528;BME280;62320;51.520;6.818;2022-12-07T18:54:55;100851.06;;;5.03;99.29
4528;BME280;62320;51.520;6.818;2022-12-07T19:04:57;100849.28;;;5.01;99.89
4528;BME280;62320;51.520;6.818;2022-12-07T19:14:58;100857.66;;;4.95;99.63
4528;BME280;62320;51.520;6.818;2022-12-07T19:24:59;100850.78;;;4.93;99.66
4528;BME280;62320;51.520;6.818;2022-12-07T19:35:01;100853.19;;;4.87;99.41
4528;BME280;62320;51.520;6.818;2022-12-07T19:45:03;100827.47;;;4.82;100.00
4528;BME280;62320;51.520;6.818;2022-12-07T19:55:06;100823.19;;;4.81;99.67
4528;BME280;62320;51.520;6.818;2022-12-07T20:05:08;100817.13;;;4.78;100.00
4528;BME280;62320;51.520;6.818;2022-12-07T20:15:10;100794.81;;;4.74;100.00
4528;BME280;62320;51.520;6.818;2022-12-07T20:25:11;100795.63;;;4.71;100.00
4528;BME280;62320;51.520;6.818;2022-12-07T20:35:13;100792.13;;;4.68;100.00
4528;BME280;62320;51.520;6.818;2022-12-07T20:45:14;100781.03;;;4.69;100.00
4528;BME280;62320;51.520;6.818;2022-12-07T20:55:16;100780.94;;;4.64;100.00
4528;BME280;62320;51.520;6.818;2022-12-07T21:05:18;100770.69;;;4.64;100.00
4528;BME280;62320;51.520;6.818;2022-12-07T21:15:19;100773.16;;;4.60;100.00
4528;BME280;62320;51.520;6.818;2022-12-07T21:25:21;100771.44;;;4.59;100.00
4528;BME280;62320;51.520;6.818;2022-12-07T21:35:23;100764.69;;;4.64;100.00
4528;BME280;62320;51.520;6.818;2022-12-07T21:45:25;100754.41;;;4.61;100.00
4528;BME280;62320;51.520;6.818;2022-12-07T21:55:26;100750.19;;;4.64;100.00
4528;BME280;62320;51.520;6.818;2022-12-07T22:05:27;100745.94;;;4.65;100.00
4528;BME280;62320;51.520;6.818;2022-12-07T22:15:29;100747.66;;;4.66;100.00
4528;BME280;62320;51.520;6.818;2022-12-07T22:25:30;100745.06;;;4.63;100.00
4528;BME280;62320;51.520;6.818;2022-12-07T22:35:31;100717.69;;;4.60;100.00
4528;BME280;62320;51.520;6.818;2022-12-07T22:45:33;100715.88;;;4.56;100.00
4528;BME280;62320;51.520;6.818;2022-12-07T22:55:38;100703.13;;;4.59;100.00
4528;BME280;62320;51.520;6.818;2022-12-07T23:05:48;100679.19;;;4.57;100.00
4528;BME280;62320;51.520;6.818;2022-12-07T23:15:50;100676.59;;;4.54;100.00
4528;BME280;62320;51.520;6.818;2022-12-07T23:25:51;100668.81;;;4.51;100.00
4528;BME280;62320;51.520;6.818;2022-12-07T23:35:53;100666.19;;;4.48;100.00
4528;BME280;62320;51.520;6.818;2022-12-07T23:45:54;100648.25;;;4.48;100.00
4528;BME280;62320;51.520;6.818;2022-12-07T23:55:56;100642.25;;;4.46;100.00
